AirNav   Advertisement
 
 606 users online  

KMCC Mc Clellan Airfield
Sacramento, California, USA

GOING TO SACRAMENTO?


FAA INFORMATION EFFECTIVE 17 AUGUST 2017

Location

FAA Identifier: MCC
Lat/Long: 38-40-03.5000N / 121-24-02.2000W
38-40.058333N / 121-24.036667W
38.6676389 / -121.4006111
(estimated)
Elevation: 76.8 ft. / 23.4 m (surveyed)
Variation: 17E (1975)
From city: 6 miles NE of SACRAMENTO, CA
Time zone: UTC -7 (UTC -8 during Standard Time)
Zip code: 95660

Airport Operations

Airport use: Open to the public
Activation date: 05/1941
Control tower: no
ARTCC: OAKLAND CENTER
FSS: RANCHO MURIETA FLIGHT SERVICE STATION
NOTAMs facility: MCC (NOTAM-D service available)
Attendance: CONTINUOUS
Wind indicator: yes
Segmented circle: yes
Lights: ACTVT HIRL RY 16/34, SSALR AND TWY LGTS - CTAF. PAPI RYS 16 & 34 OPER CONT.
Beacon: white-green (lighted land airport)
Operates sunset to sunrise.

Airport Communications

CTAF/UNICOM: 122.975
WX AWOS-3: 125.975 (916-641-1272)
NORCAL APPROACH: 127.4
NORCAL DEPARTURE: 127.4
CLEARANCE DELIVERY: 119.825
WX AWOS-3 at MHR (8 nm SE): PHONE 916-366-3371
WX ASOS at SMF (9 nm W): PHONE 916-649-3996
WX ASOS at SAC (10 nm SW): PHONE 916-421-0923
WX AWOS-3 at LHM (15 nm N): 124.25 (916-645-0698)
WX AWOS-3 at EDU (20 nm SW): 119.025 (530-754-6839)
  • ASR-9 MAG VAR 15E 2005.
  • MILITARY USE: PMSV METRO - 344.6 REMARKS: PART TIME.
  • USCG COMSTA SAN FRAN - OPR 0500-1100Z++. 3123 5696 8984 11201
  • USCG SACRAMENTO - 167.9 345.0.
  • ASR-9 MAG VAR 15E.

Nearby radio navigation aids

VOR radial/distance  VOR name  Freq  Var
MCC at fieldMC CLELLAN VOR/DME109.2017E
SACr011/15.2SACRAMENTO VORTAC115.2017E
MYVr147/27.1MARYSVILLE VOR/DME110.8016E
HNWr247/30.7HANGTOWN VOR/DME115.5017E
ILAr112/38.0WILLIAMS VORTAC114.4018E

Airport Services

Fuel available: 100LL JET-A JET-A+
SELF-SERVICE 100LL FUEL WEST SIDE TWY KILO.
Parking: hangars and tiedowns
Airframe service: MAJOR
Powerplant service: MAJOR
Bottled oxygen: NONE
Bulk oxygen: HIGH/LOW

Runway Information

Runway 16/34

Dimensions: 10599 x 150 ft. / 3231 x 46 m
Surface: concrete/grooved, in good condition
Weight bearing capacity: 
Single wheel: 155.0
Double wheel: 300.0
Double tandem: 500.0
Runway edge lights: high intensity
NSTD HIRL LCTD 25 FT FM RY EDGE MARKINGS.
RUNWAY 16  RUNWAY 34
Latitude: 38-40.931302N38-39.185153N
Longitude: 121-24.034645W121-24.037353W
Elevation: 76.8 ft.69.9 ft.
Traffic pattern: rightleft
Runway heading: 163 magnetic, 180 true343 magnetic, 000 true
Markings: precision, in good conditionprecision, in good condition
Visual slope indicator: 4-light PAPI on left (3.00 degrees glide path)4-light PAPI on left (3.00 degrees glide path)
Approach lights: SSALR: simplified short approach lighting system with runway alignment indicator lights
Runway end identifier lights: nono
Touchdown point: yes, no lightsyes, no lights
Instrument approach: ILSILS
Obstructions: none90 ft. tower, 4000 ft. from runway, 175 ft. left of centerline, 42:1 slope to clear

Helipad H1

Dimensions: 57 x 57 ft. / 17 x 17 m
Surface: concrete
Runway edge markings: MILITARY MARKINGS ON AIRFIELD.
Traffic pattern: leftleft
Markings: NSTD

Helipad H2

Dimensions: 57 x 57 ft. / 17 x 17 m
Surface: concrete
Traffic pattern: leftleft

Helipad H3

Dimensions: 57 x 57 ft. / 17 x 17 m
Surface: asphalt
Traffic pattern: leftleft

Helipad H4

Dimensions: 57 x 57 ft. / 17 x 17 m
Surface: concrete
Traffic pattern: leftleft

Airport Ownership and Management from official FAA records

Ownership: Publicly-owned
Owner: SACRAMENTO COUNTY
3331 PEACEKEEPER WAY
MCCLELLAN, CA 95652
Phone 916-643-5611
Manager: PHIL BENEDETTO
3331 PEACEKEEPER WAY, SUITE 100
MCCLELLAN, CA 95652
Phone (916) 875-7077
SACRAMENTO CO AIRPORT SYSTEM BENEDETTOP@SACCOUNTY.NET

Airport Operational Statistics

Aircraft based on the field: 110
Single engine airplanes: 23
Multi engine airplanes: 57
Jet airplanes: 12
Helicopters: 14
Military aircraft: 4
    
Aircraft operations: avg 49/day *
33% transient general aviation
28% air taxi
22% local general aviation
17% military
* for 12-month period ending 31 December 2016

Additional Remarks

900 FT ASPH OVRN SE END RY 16 & 1000 FT ASPH OVRN NW END RY 34.
MILITARY USE: TRAN ACFT PPR FOR USCG RAMP C916-643-7659, WITH CREW LIST FOR ARR/DEP PAX.
RY 16 CALM WIND RWY.
TWYS E,F,G NSTD TWY EDGE LGTG.
CD 119.825. IF UNA, CTC NORCAL APCH AT 916-361-6874.
FLD CONDS-RWY, TWY & APRON GOOD.
STRICT ADHERENCE TO PUBLD TFC PATS RCMD FOR NS ABTMT PURPOSES.
TOUCH/GO LNDG FOR C5 PROHIBITED.
DURG INCREASED BIRD CONDITIONS THE POTENTIAL FOR BIRD CONGESTION EXIST AT BOTH ARR/DEP ENDS RY 16/34.
ALL ACFT EXIT RY TO THE EAST. SELF SRV 100LL W SIDE TW KILO.
MILITARY USE: FUEL - A+ (MCCLELLAN JET SVC, C916-641-8970.)

Instrument Procedures

NOTE: All procedures below are presented as PDF files. If you need a reader for these files, you should download the free Adobe Reader.

NOT FOR NAVIGATION. Please procure official charts for flight.
FAA instrument procedures published for use between 17 August 2017 at 0901Z and 14 September 2017 at 0900Z.

 
IAPs - Instrument Approach Procedures
ILS OR LOC RWY 16 **CHANGED**   download (218KB)
VOR/DME RWY 34 **CHANGED**   download (173KB)

Other nearby airports with instrument procedures:

KMHR - Sacramento Mather Airport (8 nm SE)
KSMF - Sacramento International Airport (9 nm W)
KSAC - Sacramento Executive Airport (10 nm SW)
KLHM - Lincoln Regional Airport/Karl Harder Field (15 nm N)
KEDU - University Airport (20 nm SW)
 
Loc | Ops | Rwys | IFR | FBO | Links
Com | Nav | Svcs | Stats | Notes

McClellan Jet Services
AirBoss

 
Area around KMCC (Mc Clellan Airfield)
 
Road maps at: MapQuest Bing Google
 
Aerial photo
WARNING: Photo may not be current or correct
Aerial photo of KMCC (Mc Clellan Airfield)
Photo by Gary Chambers
Photo taken 24-Feb-2006

Do you have a better or more recent aerial photo of Mc Clellan Airfield that you would like to share? If so, please send us your photo.

 
Sectional chart

 
Airport diagram
CAUTION: Diagram may not be current
Diagram of KMCC (Mc Clellan Airfield)
Download PDF
of official airport diagram from the FAA

 
Airport distance calculator
Flying to Mc Clellan Airfield? Find the distance to fly.

From to KMCC

Sunrise and sunset
Times for 17-Aug-2017
 Local
(UTC-7)
 Zulu
(UTC)
Morning civil twilight05:5412:54
Sunrise06:2213:22
Sunset19:5702:57
Evening civil twilight20:2503:25

Current date and time
Zulu (UTC)  18-Aug-2017 04:45:26
Local (UTC-7)  17-Aug-2017 21:45:26
 
METAR
KMCC 180435Z AUTO 17009KT 10SM CLR 24/12 A2991 RMK AO2
KSMF 
10nm W 
180353Z 18009KT 10SM CLR 24/14 A2986 RMK AO2 SLP111 T02440144
KMHR 
10nm SE 
180345Z 20008KT 10SM SKC 25/14 A2988
KSAC 
11nm SW 
180353Z 19006KT 10SM CLR 23/14 A2988 RMK AO2 SLP119 T02280139
KLHM 
15nm N 
180435Z AUTO 16005KT 10SM CLR 27/12 A2988 RMK AO1
KEDU 
20nm SW 
180435Z AUTO 17004KT 10SM CLR 22/14 A2989 RMK AO1
TAF
KSMF 
10nm W 
171720Z 1718/1818 17010KT P6SM FEW250
KMHR 
10nm SE 
171720Z 1718/1818 21007KT P6SM FEW250 FM180600 15004KT P6SM FEW250
KSAC 
11nm SW 
171720Z 1718/1818 22006KT P6SM FEW250 FM180600 18006KT P6SM FEW250
NOTAMs
Click for the latest NOTAMs
NOTAMs are issued by the DoD/FAA and will open in a separate window not controlled by AirNav.

 

 
 

FBO, Fuel Providers, and Aircraft Ground Support

  
 Business Name 
 
 Contact 
 
 Services / Description 
 
Fuel Prices
 
Comments
  
McClellan Jet Services 916-641-8970
toll-free 1-877-977-5387
[web site]
[email]
Aviation fuel, Oxygen service, Aircraft parking (ramp or tiedown), Hangars, GPU / Power cart, Passenger terminal and lounge, Aircraft maintenance, ...
More info and photos of McClellan Jet Services
 
AirBoss™ fuel program   NATA Safety 1st   U.S. Government Contract Fuel   U.S. Government AIR Card   WSI Pilotbrief   Jet Fleet International   Shell Aviation Contract Fuel   UVair   World Fuel | Colt Contract Fuel   Shell AeroClass   Contract Fuel   Crew cars   Enterprise Rent-A-Car   Hertz   Wireless Internet Access (WiFi)   National Business Aviation Association  
 
Shell
100LL Jet A
FS $4.93 $4.71 
SS $3.98 --- 
GUARANTEED
AirBossMEMBERS
ONLY
Discounts
LoginJoin
  no comments
FS=Full service
SS=Self service
Update Fuel Prices
 

Would you like to see your business listed on this page?

 If your business provides an interesting product or service to pilots, flight crews, aircraft, or users of the Mc Clellan Airfield, you should consider listing it here.  To start the listing process, click on the button below
 
Add a business
 

Other Pages about Mc Clellan Airfield

www.co.sacramento.ca.us/mcclellan
www.mcclellanjetservices.com/airport-info.htm
 
Update a link
 
Copyright © AirNav, LLC. All rights reserved. Privacy Policy  Contact